createdAt,value
2018-02-10T00:00:43.083Z,100.0
2018-02-10T00:01:44.774Z,100.0
2018-02-10T00:02:46.513Z,100.0
2018-02-10T00:03:48.219Z,100.0
2018-02-10T00:04:49.919Z,100.0
2018-02-10T00:05:51.665Z,100.0
2018-02-10T00:06:53.309Z,100.0
2018-02-10T00:07:54.993Z,100.0
2018-02-10T00:08:56.692Z,100.0
2018-02-10T00:09:58.422Z,100.0
2018-02-10T00:11:00.129Z,100.0
2018-02-10T00:12:01.811Z,100.0
2018-02-10T00:13:03.572Z,100.0
2018-02-10T00:14:05.288Z,100.0
2018-02-10T00:15:06.975Z,100.0
2018-02-10T00:16:08.688Z,100.0
2018-02-10T00:17:10.503Z,100.0
2018-02-10T00:18:12.207Z,100.0
2018-02-10T00:19:13.944Z,100.0
2018-02-10T00:20:15.666Z,100.0
2018-02-10T00:21:17.355Z,100.0
2018-02-10T00:22:19.054Z,100.0
2018-02-10T00:23:20.779Z,100.0
2018-02-10T00:24:22.484Z,100.0
2018-02-10T00:25:24.271Z,100.0
2018-02-10T00:26:26.021Z,100.0
2018-02-10T00:27:27.755Z,100.0
2018-02-10T00:28:29.437Z,100.0
2018-02-10T00:29:31.112Z,100.0
2018-02-10T00:30:32.806Z,100.0
2018-02-10T00:31:34.492Z,100.0
2018-02-10T00:32:36.191Z,100.0
2018-02-10T00:33:37.892Z,100.0
2018-02-10T00:34:39.597Z,100.0
2018-02-10T00:35:41.283Z,100.0
2018-02-10T00:36:42.968Z,100.0
2018-02-10T00:37:44.653Z,100.0
2018-02-10T00:38:46.346Z,100.0
2018-02-10T00:39:48.042Z,100.0
2018-02-10T00:40:49.749Z,100.0
2018-02-10T00:41:51.447Z,100.0
2018-02-10T00:42:53.133Z,100.0
2018-02-10T00:43:54.845Z,100.0
2018-02-10T00:44:56.549Z,100.0
2018-02-10T00:45:58.247Z,100.0
2018-02-10T00:46:59.929Z,100.0
2018-02-10T00:48:01.637Z,100.0
2018-02-10T00:49:03.320Z,100.0
2018-02-10T00:50:05.009Z,100.0
2018-02-10T00:51:06.710Z,100.0
2018-02-10T00:52:08.389Z,100.0
2018-02-10T00:53:10.099Z,100.0
2018-02-10T00:54:11.826Z,100.0
2018-02-10T00:55:13.528Z,100.0
2018-02-10T00:56:15.206Z,100.0
2018-02-10T00:57:16.900Z,100.0
2018-02-10T00:58:18.590Z,100.0
2018-02-10T00:59:20.283Z,100.0
2018-02-10T01:00:21.969Z,100.0
2018-02-10T01:01:23.662Z,100.0
2018-02-10T01:02:25.364Z,100.0
2018-02-10T01:03:27.042Z,100.0
2018-02-10T01:04:28.730Z,100.0
2018-02-10T01:05:30.423Z,100.0
2018-02-10T01:06:32.124Z,100.0
2018-02-10T01:07:33.818Z,100.0
2018-02-10T01:08:35.506Z,100.0
2018-02-10T01:09:37.212Z,100.0
2018-02-10T01:10:38.893Z,100.0
2018-02-10T01:11:40.594Z,100.0
2018-02-10T01:12:42.276Z,100.0
2018-02-10T01:13:43.970Z,100.0
2018-02-10T01:14:45.666Z,100.0
2018-02-10T01:15:47.348Z,100.0
2018-02-10T01:16:49.065Z,100.0
2018-02-10T01:17:50.753Z,100.0
2018-02-10T01:18:52.456Z,100.0
2018-02-10T01:19:54.150Z,100.0
2018-02-10T01:20:55.861Z,100.0
2018-02-10T01:21:57.561Z,100.0
2018-02-10T01:22:59.290Z,100.0
2018-02-10T01:24:00.981Z,100.0
2018-02-10T01:25:02.681Z,100.0
2018-02-10T01:26:04.387Z,100.0
2018-02-10T01:27:06.099Z,100.0
2018-02-10T01:28:07.821Z,100.0
2018-02-10T01:29:09.544Z,100.0
2018-02-10T01:30:11.226Z,100.0
2018-02-10T01:31:12.922Z,100.0
2018-02-10T01:32:14.618Z,100.0
2018-02-10T01:33:16.369Z,100.0
2018-02-10T01:34:18.101Z,100.0
2018-02-10T01:35:19.811Z,100.0
2018-02-10T01:36:21.522Z,100.0
2018-02-10T01:37:23.218Z,100.0
2018-02-10T01:38:24.897Z,100.0
2018-02-10T01:39:26.627Z,100.0
2018-02-10T01:40:28.329Z,100.0
2018-02-10T01:41:30.021Z,100.0
2018-02-10T01:42:31.710Z,100.0
2018-02-10T01:43:33.482Z,100.0
2018-02-10T01:44:35.229Z,100.0
2018-02-10T01:45:36.949Z,100.0
2018-02-10T01:46:38.659Z,100.0
2018-02-10T01:47:40.370Z,100.0
2018-02-10T01:48:42.131Z,100.0
2018-02-10T01:49:43.820Z,100.0
2018-02-10T01:50:45.516Z,100.0
2018-02-10T01:51:47.236Z,100.0
2018-02-10T01:52:48.905Z,100.0
2018-02-10T01:53:50.616Z,100.0
2018-02-10T01:54:52.337Z,100.0
2018-02-10T01:55:54.050Z,100.0
2018-02-10T01:56:55.766Z,100.0
2018-02-10T01:57:57.479Z,100.0
2018-02-10T01:58:59.228Z,100.0
2018-02-10T02:00:00.976Z,100.0
2018-02-10T02:01:02.681Z,100.0
2018-02-10T02:02:04.392Z,100.0
2018-02-10T02:03:06.095Z,100.0
2018-02-10T02:04:07.939Z,100.0
2018-02-10T02:05:09.675Z,100.0
2018-02-10T02:06:11.420Z,100.0
2018-02-10T02:07:13.232Z,100.0
2018-02-10T02:08:14.924Z,100.0
2018-02-10T02:09:16.620Z,100.0
2018-02-10T02:10:18.307Z,100.0
2018-02-10T02:11:20.002Z,100.0
2018-02-10T02:12:21.715Z,100.0
2018-02-10T02:13:23.424Z,100.0
2018-02-10T02:14:25.119Z,100.0
2018-02-10T02:15:26.883Z,100.0
2018-02-10T02:16:28.608Z,100.0
2018-02-10T02:17:30.325Z,100.0
2018-02-10T02:18:32.056Z,100.0
2018-02-10T02:19:33.910Z,100.0
2018-02-10T02:20:35.606Z,100.0
2018-02-10T02:21:37.306Z,100.0
2018-02-10T02:22:39.006Z,100.0
2018-02-10T02:23:40.710Z,100.0
2018-02-10T02:24:42.488Z,100.0
2018-02-10T02:25:44.191Z,100.0
2018-02-10T02:26:45.891Z,100.0
2018-02-10T02:27:47.636Z,100.0
2018-02-10T02:28:49.352Z,100.0
2018-02-10T02:29:51.036Z,100.0
2018-02-10T02:30:52.729Z,100.0
2018-02-10T02:31:54.498Z,100.0
2018-02-10T02:32:56.205Z,100.0
2018-02-10T02:33:57.899Z,100.0
2018-02-10T02:34:59.639Z,100.0
2018-02-10T02:36:01.346Z,100.0
2018-02-10T02:37:03.062Z,100.0
2018-02-10T02:38:04.791Z,100.0
2018-02-10T02:39:06.488Z,100.0
2018-02-10T02:40:08.213Z,100.0
2018-02-10T02:41:09.968Z,100.0
2018-02-10T02:42:11.683Z,100.0
2018-02-10T02:43:13.392Z,100.0
2018-02-10T02:44:15.104Z,100.0
2018-02-10T02:45:16.862Z,100.0
2018-02-10T02:46:18.552Z,100.0
2018-02-10T02:47:20.276Z,100.0
2018-02-10T02:48:21.995Z,100.0
2018-02-10T02:49:23.732Z,100.0
2018-02-10T02:50:25.434Z,100.0
2018-02-10T02:51:27.175Z,100.0
2018-02-10T02:52:28.913Z,100.0
2018-02-10T02:53:30.722Z,100.0
2018-02-10T02:54:32.456Z,100.0
2018-02-10T02:55:34.147Z,100.0
2018-02-10T02:56:35.930Z,100.0
2018-02-10T02:57:37.703Z,100.0
2018-02-10T02:58:39.412Z,100.0
2018-02-10T02:59:41.123Z,100.0
2018-02-10T03:00:42.813Z,100.0
2018-02-10T03:01:44.535Z,100.0
2018-02-10T03:02:46.267Z,100.0
2018-02-10T03:03:48.002Z,100.0
2018-02-10T03:04:49.712Z,100.0
2018-02-10T03:05:51.465Z,100.0
2018-02-10T03:06:53.151Z,100.0
2018-02-10T03:07:54.891Z,100.0
2018-02-10T03:08:56.582Z,100.0
2018-02-10T03:09:58.265Z,100.0
2018-02-10T03:11:00.045Z,100.0
2018-02-10T03:12:01.736Z,100.0
2018-02-10T03:13:03.432Z,100.0
2018-02-10T03:14:05.175Z,100.0
2018-02-10T03:15:06.924Z,100.0
2018-02-10T03:16:08.647Z,100.0
2018-02-10T03:17:10.427Z,100.0
2018-02-10T03:18:12.128Z,100.0
2018-02-10T03:19:13.888Z,100.0
2018-02-10T03:20:15.589Z,100.0
2018-02-10T03:21:17.304Z,100.0
2018-02-10T03:22:19.010Z,100.0
2018-02-10T03:23:20.732Z,100.0
2018-02-10T03:24:22.513Z,100.0
2018-02-10T03:25:24.311Z,100.0
2018-02-10T03:26:26.030Z,100.0
2018-02-10T03:27:27.890Z,100.0
2018-02-10T03:28:29.696Z,100.0
2018-02-10T03:29:31.394Z,100.0
2018-02-10T03:30:33.117Z,100.0
2018-02-10T03:31:34.845Z,100.0
2018-02-10T03:32:36.594Z,100.0
2018-02-10T03:33:38.339Z,100.0
2018-02-10T03:34:40.153Z,100.0
2018-02-10T03:35:41.909Z,100.0
2018-02-10T03:36:43.600Z,100.0
2018-02-10T03:37:45.276Z,100.0
2018-02-10T03:38:47.103Z,100.0
2018-02-10T03:39:48.798Z,100.0
2018-02-10T03:40:50.557Z,100.0
2018-02-10T03:41:52.434Z,100.0
2018-02-10T03:42:54.157Z,100.0
2018-02-10T03:43:55.871Z,100.0
2018-02-10T03:44:57.620Z,100.0
2018-02-10T03:45:59.318Z,100.0
2018-02-10T03:47:00.998Z,100.0
2018-02-10T03:48:02.681Z,100.0
2018-02-10T03:49:04.371Z,100.0
2018-02-10T03:50:06.086Z,100.0
2018-02-10T03:51:07.783Z,100.0
2018-02-10T03:52:09.479Z,100.0
2018-02-10T03:53:11.214Z,100.0
2018-02-10T03:54:12.906Z,100.0
2018-02-10T03:55:14.603Z,100.0
2018-02-10T03:56:16.302Z,100.0
2018-02-10T03:57:18.012Z,100.0
2018-02-10T03:58:19.769Z,100.0
2018-02-10T03:59:21.473Z,100.0
2018-02-10T04:00:23.173Z,100.0
2018-02-10T04:01:24.902Z,100.0
2018-02-10T04:02:26.586Z,100.0
2018-02-10T04:03:28.307Z,100.0
2018-02-10T04:04:30.014Z,100.0
2018-02-10T04:05:31.707Z,100.0
2018-02-10T04:06:33.413Z,100.0
2018-02-10T04:07:35.100Z,100.0
2018-02-10T04:08:36.799Z,100.0
2018-02-10T04:09:39.667Z,100.0
2018-02-10T04:10:41.398Z,100.0
2018-02-10T04:11:43.093Z,100.0
2018-02-10T04:12:44.828Z,100.0
2018-02-10T04:13:46.527Z,100.0
2018-02-10T04:14:48.218Z,100.0
2018-02-10T04:15:49.903Z,100.0
2018-02-10T04:16:51.597Z,100.0
2018-02-10T04:17:53.292Z,100.0
2018-02-10T04:18:54.989Z,100.0
2018-02-10T04:19:56.676Z,100.0
2018-02-10T04:20:58.432Z,100.0
2018-02-10T04:22:00.131Z,100.0
2018-02-10T04:23:01.875Z,100.0
2018-02-10T04:24:03.570Z,100.0
2018-02-10T04:25:05.257Z,100.0
2018-02-10T04:26:06.972Z,100.0
2018-02-10T04:27:08.653Z,100.0
2018-02-10T04:28:10.429Z,100.0
2018-02-10T04:29:12.139Z,100.0
2018-02-10T04:30:13.851Z,100.0
2018-02-10T04:31:15.601Z,100.0
2018-02-10T04:32:17.321Z,100.0
2018-02-10T04:33:19.043Z,100.0
2018-02-10T04:34:20.884Z,100.0
2018-02-10T04:35:22.603Z,100.0
2018-02-10T04:36:24.331Z,100.0
2018-02-10T04:37:26.050Z,100.0
2018-02-10T04:38:27.766Z,100.0
2018-02-10T04:39:29.508Z,100.0
2018-02-10T04:40:31.275Z,100.0
2018-02-10T04:41:33.016Z,100.0
2018-02-10T04:42:34.711Z,100.0
2018-02-10T04:43:36.430Z,100.0
2018-02-10T04:44:38.170Z,100.0
2018-02-10T04:45:39.883Z,100.0
2018-02-10T04:46:41.600Z,100.0
2018-02-10T04:47:43.318Z,100.0
2018-02-10T04:48:45.050Z,100.0
2018-02-10T04:49:46.764Z,100.0
2018-02-10T04:50:48.469Z,100.0
2018-02-10T04:51:50.184Z,100.0
2018-02-10T04:52:51.947Z,100.0
2018-02-10T04:53:53.684Z,100.0
2018-02-10T04:54:55.421Z,100.0
2018-02-10T04:55:57.166Z,100.0
2018-02-10T04:56:58.867Z,100.0
2018-02-10T04:58:00.584Z,100.0
2018-02-10T04:59:02.297Z,100.0
2018-02-10T05:00:03.972Z,100.0
2018-02-10T05:01:05.667Z,100.0
2018-02-10T05:02:07.368Z,100.0
2018-02-10T05:03:09.056Z,100.0
2018-02-10T05:04:10.769Z,100.0
2018-02-10T05:05:12.492Z,100.0
2018-02-10T05:06:14.206Z,100.0
2018-02-10T05:07:16.001Z,100.0
2018-02-10T05:08:17.680Z,100.0
2018-02-10T05:09:19.383Z,100.0
2018-02-10T05:10:21.156Z,100.0
2018-02-10T05:11:22.834Z,100.0
2018-02-10T05:12:24.536Z,100.0
2018-02-10T05:13:26.234Z,100.0
2018-02-10T05:14:27.936Z,100.0
2018-02-10T05:15:29.643Z,100.0
2018-02-10T05:16:31.348Z,100.0
2018-02-10T05:17:33.035Z,100.0
2018-02-10T05:18:34.722Z,100.0
2018-02-10T05:19:36.462Z,100.0
2018-02-10T05:20:38.169Z,100.0
2018-02-10T05:21:39.893Z,100.0
2018-02-10T05:22:41.660Z,100.0
2018-02-10T05:23:43.327Z,100.0
2018-02-10T05:24:45.114Z,100.0
2018-02-10T05:25:46.809Z,100.0
2018-02-10T05:26:48.501Z,100.0
2018-02-10T05:27:50.209Z,100.0
2018-02-10T05:28:51.904Z,100.0
2018-02-10T05:29:53.619Z,100.0
2018-02-10T05:30:55.361Z,100.0
2018-02-10T05:31:57.172Z,100.0
2018-02-10T05:32:58.878Z,100.0
2018-02-10T05:34:00.645Z,100.0
2018-02-10T05:35:02.459Z,100.0
2018-02-10T05:36:04.181Z,100.0
2018-02-10T05:37:05.884Z,100.0
2018-02-10T05:38:07.583Z,100.0
2018-02-10T05:39:09.310Z,100.0
2018-02-10T05:40:11.091Z,100.0
2018-02-10T05:41:12.788Z,100.0
2018-02-10T05:42:14.485Z,100.0
2018-02-10T05:43:16.174Z,100.0
2018-02-10T05:44:17.886Z,100.0
2018-02-10T05:45:19.576Z,100.0
2018-02-10T05:46:21.264Z,100.0
2018-02-10T05:47:22.937Z,100.0
2018-02-10T05:48:24.633Z,100.0
2018-02-10T05:49:26.323Z,100.0
2018-02-10T05:50:28.027Z,100.0
2018-02-10T05:51:29.740Z,100.0
2018-02-10T05:52:31.439Z,100.0
2018-02-10T05:53:33.143Z,100.0
2018-02-10T05:54:34.835Z,100.0
2018-02-10T05:55:36.550Z,100.0
2018-02-10T05:56:38.233Z,100.0
2018-02-10T05:57:39.970Z,100.0
2018-02-10T05:58:41.660Z,100.0
2018-02-10T05:59:43.392Z,100.0
2018-02-10T06:00:45.096Z,100.0
2018-02-10T06:01:46.797Z,100.0
2018-02-10T06:02:48.485Z,100.0
2018-02-10T06:03:50.200Z,100.0
2018-02-10T06:04:51.901Z,100.0
2018-02-10T06:05:53.619Z,100.0
2018-02-10T06:06:55.310Z,100.0
2018-02-10T06:07:57.084Z,100.0
2018-02-10T06:08:58.746Z,100.0
2018-02-10T06:10:00.450Z,100.0
2018-02-10T06:11:02.156Z,100.0
2018-02-10T06:12:03.875Z,100.0
2018-02-10T06:13:05.576Z,100.0
2018-02-10T06:14:07.257Z,100.0
2018-02-10T06:15:08.948Z,100.0
2018-02-10T06:16:10.650Z,100.0
2018-02-10T06:17:12.337Z,100.0
2018-02-10T06:18:14.045Z,100.0
2018-02-10T06:19:15.726Z,100.0
2018-02-10T06:20:17.437Z,100.0
2018-02-10T06:21:19.133Z,100.0
2018-02-10T06:22:20.835Z,100.0
2018-02-10T06:23:22.522Z,100.0
2018-02-10T06:24:24.223Z,100.0
2018-02-10T06:25:25.912Z,100.0
2018-02-10T06:26:27.622Z,100.0
2018-02-10T06:27:29.345Z,100.0
2018-02-10T06:28:31.044Z,100.0
2018-02-10T06:29:32.752Z,100.0
2018-02-10T06:30:34.448Z,100.0
2018-02-10T06:31:36.134Z,100.0
2018-02-10T06:32:37.853Z,100.0
2018-02-10T06:33:39.547Z,100.0
2018-02-10T06:34:41.233Z,100.0
2018-02-10T06:35:42.917Z,100.0
2018-02-10T06:36:44.622Z,100.0
2018-02-10T06:37:46.309Z,100.0
2018-02-10T06:38:47.988Z,100.0
2018-02-10T06:39:49.688Z,100.0
2018-02-10T06:40:51.371Z,100.0
2018-02-10T06:41:53.120Z,100.0
2018-02-10T06:42:54.820Z,100.0
2018-02-10T06:43:56.519Z,100.0
2018-02-10T06:44:58.209Z,100.0
2018-02-10T06:45:59.915Z,100.0
2018-02-10T06:47:01.607Z,100.0
2018-02-10T06:48:03.311Z,100.0
2018-02-10T06:49:05.006Z,100.0
2018-02-10T06:50:06.685Z,100.0
2018-02-10T06:51:08.393Z,100.0
2018-02-10T06:52:10.080Z,100.0
2018-02-10T06:53:11.774Z,100.0
2018-02-10T06:54:13.481Z,100.0
2018-02-10T06:55:15.193Z,100.0
2018-02-10T06:56:16.898Z,100.0
2018-02-10T06:57:18.593Z,100.0
2018-02-10T06:58:20.314Z,100.0
2018-02-10T06:59:22.029Z,100.0
2018-02-10T07:00:23.717Z,100.0
2018-02-10T07:01:25.430Z,100.0
2018-02-10T07:02:27.148Z,100.0
2018-02-10T07:03:28.832Z,100.0
2018-02-10T07:04:30.538Z,100.0
2018-02-10T07:05:32.281Z,100.0
2018-02-10T07:06:33.979Z,100.0
2018-02-10T07:07:35.671Z,100.0
2018-02-10T07:08:37.366Z,100.0
2018-02-10T07:09:39.071Z,100.0
2018-02-10T07:10:40.779Z,100.0
2018-02-10T07:11:42.492Z,100.0
2018-02-10T07:12:44.206Z,100.0
2018-02-10T07:13:45.912Z,100.0
2018-02-10T07:14:47.593Z,100.0
2018-02-10T07:15:49.354Z,100.0
2018-02-10T07:16:50.994Z,100.0
2018-02-10T07:17:52.685Z,100.0
2018-02-10T07:18:54.381Z,100.0
2018-02-10T07:19:56.077Z,100.0
2018-02-10T07:20:57.794Z,100.0
2018-02-10T07:21:59.503Z,100.0
2018-02-10T07:23:01.202Z,100.0
2018-02-10T07:24:02.883Z,100.0
2018-02-10T07:25:04.591Z,100.0
2018-02-10T07:26:06.289Z,100.0
2018-02-10T07:27:07.991Z,100.0
2018-02-10T07:28:09.679Z,100.0
2018-02-10T07:29:11.373Z,100.0
2018-02-10T07:30:13.063Z,100.0
2018-02-10T07:31:14.749Z,100.0
2018-02-10T07:32:16.448Z,100.0
2018-02-10T07:33:18.141Z,100.0
2018-02-10T07:34:19.846Z,100.0
2018-02-10T07:35:21.557Z,100.0
2018-02-10T07:36:23.239Z,100.0
2018-02-10T07:37:24.944Z,100.0
2018-02-10T07:38:26.640Z,100.0
2018-02-10T07:39:28.343Z,100.0
2018-02-10T07:40:30.024Z,100.0
2018-02-10T07:41:31.707Z,100.0
2018-02-10T07:42:33.394Z,100.0
2018-02-10T07:43:35.097Z,100.0
2018-02-10T07:44:36.794Z,100.0
2018-02-10T07:45:38.491Z,100.0
2018-02-10T07:46:40.242Z,100.0
2018-02-10T07:47:41.938Z,100.0
2018-02-10T07:48:43.633Z,100.0
2018-02-10T07:49:45.324Z,100.0
2018-02-10T07:50:47.069Z,100.0
2018-02-10T07:51:48.757Z,100.0
2018-02-10T07:52:50.465Z,100.0
2018-02-10T07:53:52.159Z,100.0
2018-02-10T07:54:53.886Z,100.0
2018-02-10T07:55:55.586Z,100.0
2018-02-10T07:56:57.286Z,100.0
2018-02-10T07:57:58.979Z,100.0
2018-02-10T07:59:00.678Z,100.0
2018-02-10T08:00:02.434Z,100.0
2018-02-10T08:01:04.111Z,100.0
2018-02-10T08:02:05.796Z,100.0
2018-02-10T08:03:07.508Z,100.0
2018-02-10T08:04:09.222Z,100.0
2018-02-10T08:05:10.923Z,100.0
2018-02-10T08:06:12.620Z,100.0
2018-02-10T08:07:14.311Z,100.0
2018-02-10T08:08:16.019Z,100.0
2018-02-10T08:09:17.718Z,100.0
2018-02-10T08:10:19.426Z,100.0
2018-02-10T08:11:21.122Z,100.0
2018-02-10T08:12:22.833Z,100.0
2018-02-10T08:13:24.570Z,100.0
2018-02-10T08:14:26.277Z,100.0
2018-02-10T08:15:27.989Z,100.0
2018-02-10T08:16:29.713Z,100.0
2018-02-10T08:17:31.432Z,100.0
2018-02-10T08:18:33.165Z,100.0
2018-02-10T08:19:34.874Z,100.0
2018-02-10T08:20:36.599Z,100.0
2018-02-10T08:21:38.300Z,100.0
2018-02-10T08:22:40.004Z,100.0
2018-02-10T08:23:41.728Z,100.0
2018-02-10T08:24:43.455Z,100.0
2018-02-10T08:25:45.163Z,100.0
2018-02-10T08:26:46.889Z,100.0
2018-02-10T08:27:48.588Z,100.0
2018-02-10T08:28:50.324Z,100.0
2018-02-10T08:29:52.022Z,100.0
2018-02-10T08:30:53.771Z,100.0
2018-02-10T08:31:55.507Z,100.0
2018-02-10T08:32:57.209Z,100.0
2018-02-10T08:33:58.906Z,100.0
2018-02-10T08:35:00.622Z,100.0
2018-02-10T08:36:02.329Z,100.0
2018-02-10T08:37:04.065Z,100.0
2018-02-10T08:38:05.804Z,100.0
2018-02-10T08:39:07.519Z,100.0
2018-02-10T08:40:09.238Z,100.0
2018-02-10T08:41:10.954Z,100.0
2018-02-10T08:42:12.665Z,100.0
2018-02-10T08:43:14.370Z,100.0
2018-02-10T08:44:16.124Z,100.0
2018-02-10T08:45:17.744Z,100.0
2018-02-10T08:46:19.443Z,100.0
2018-02-10T08:47:21.134Z,100.0
2018-02-10T08:48:22.840Z,100.0
2018-02-10T08:49:24.549Z,100.0
2018-02-10T08:50:26.267Z,100.0
2018-02-10T08:51:27.981Z,100.0
2018-02-10T08:52:29.712Z,100.0
2018-02-10T08:53:31.405Z,100.0
2018-02-10T08:54:33.120Z,100.0
2018-02-10T08:55:34.812Z,100.0
2018-02-10T08:56:36.521Z,100.0
2018-02-10T08:57:38.213Z,100.0
2018-02-10T08:58:39.914Z,100.0
2018-02-10T08:59:41.740Z,100.0
2018-02-10T09:00:43.419Z,100.0
2018-02-10T09:01:45.137Z,100.0
2018-02-10T09:02:46.865Z,100.0
2018-02-10T09:03:48.556Z,100.0
2018-02-10T09:04:50.304Z,100.0
2018-02-10T09:05:53.012Z,100.0
2018-02-10T09:06:54.985Z,100.0
2018-02-10T09:07:56.682Z,100.0
2018-02-10T09:08:58.394Z,100.0
2018-02-10T09:10:00.188Z,100.0
2018-02-10T09:11:01.914Z,100.0
2018-02-10T09:12:03.633Z,100.0
2018-02-10T09:13:05.350Z,100.0
2018-02-10T09:14:07.054Z,100.0
2018-02-10T09:15:08.780Z,100.0
2018-02-10T09:16:10.470Z,100.0
2018-02-10T09:17:12.218Z,100.0
2018-02-10T09:18:13.906Z,100.0
2018-02-10T09:19:15.749Z,100.0
2018-02-10T09:20:17.429Z,100.0
2018-02-10T09:21:19.127Z,100.0
2018-02-10T09:22:20.837Z,100.0
2018-02-10T09:23:22.574Z,100.0
2018-02-10T09:24:24.274Z,100.0
2018-02-10T09:25:26.003Z,100.0
2018-02-10T09:26:27.707Z,100.0
2018-02-10T09:27:29.455Z,100.0
2018-02-10T09:28:31.157Z,100.0
2018-02-10T09:29:33.007Z,100.0
2018-02-10T09:30:34.708Z,100.0
2018-02-10T09:31:36.422Z,100.0
2018-02-10T09:32:38.147Z,100.0
2018-02-10T09:33:39.853Z,100.0
2018-02-10T09:34:41.563Z,100.0
2018-02-10T09:35:44.162Z,100.0
2018-02-10T09:36:45.873Z,100.0
2018-02-10T09:37:47.597Z,100.0
2018-02-10T09:38:49.305Z,100.0
2018-02-10T09:39:51.014Z,100.0
2018-02-10T09:40:52.730Z,100.0
2018-02-10T09:41:54.442Z,100.0
2018-02-10T09:42:56.216Z,100.0
2018-02-10T09:43:57.930Z,100.0
2018-02-10T09:44:59.650Z,100.0
2018-02-10T09:46:01.365Z,100.0
2018-02-10T09:47:03.200Z,100.0
2018-02-10T09:48:04.932Z,100.0
2018-02-10T09:49:06.660Z,100.0
2018-02-10T09:50:08.391Z,100.0
2018-02-10T09:53:36.522Z,100.0
2018-02-10T09:54:38.247Z,100.0
2018-02-10T09:55:40.043Z,100.0
2018-02-10T09:56:41.899Z,100.0
2018-02-10T09:57:43.599Z,100.0
2018-02-10T09:58:45.330Z,100.0
2018-02-10T09:59:47.027Z,100.0
2018-02-10T10:00:48.776Z,100.0
2018-02-10T10:01:50.556Z,100.0
2018-02-10T10:02:52.277Z,100.0
2018-02-10T10:03:53.986Z,100.0
2018-02-10T10:04:55.679Z,100.0
2018-02-10T10:05:57.546Z,100.0
2018-02-10T10:06:59.395Z,100.0
2018-02-10T10:08:01.124Z,100.0
2018-02-10T10:09:02.977Z,100.0
2018-02-10T10:10:05.308Z,100.0
2018-02-10T10:11:07.125Z,100.0
2018-02-10T10:12:10.748Z,100.0
2018-02-10T10:13:12.436Z,100.0
2018-02-10T10:14:14.132Z,99.8
2018-02-10T10:15:15.818Z,99.4
2018-02-10T10:16:17.507Z,99.5
2018-02-10T10:17:19.260Z,98.6
2018-02-10T10:18:20.965Z,98.6
2018-02-10T10:19:22.687Z,98.7
2018-02-10T10:20:24.388Z,98.2
2018-02-10T10:21:26.134Z,98.7
2018-02-10T10:22:27.867Z,98.6
2018-02-10T10:23:29.577Z,97.3
2018-02-10T10:24:31.615Z,97.4
2018-02-10T10:25:33.378Z,97.9
2018-02-10T10:26:35.357Z,97.3
2018-02-10T10:27:37.088Z,97.2
2018-02-10T10:28:38.867Z,97.2
2018-02-10T10:29:40.778Z,97.4
2018-02-10T10:30:42.547Z,97.8
2018-02-10T10:31:44.286Z,97.8
2018-02-10T10:32:46.281Z,96.9
2018-02-10T10:33:48.065Z,97.2
2018-02-10T10:34:49.781Z,97.8
2018-02-10T10:35:51.498Z,97.7
2018-02-10T10:36:53.238Z,96.7
2018-02-10T10:37:54.963Z,95.7
2018-02-10T10:38:56.725Z,95.0
2018-02-10T10:39:58.495Z,93.9
2018-02-10T10:41:00.377Z,92.1
2018-02-10T10:42:02.085Z,89.3
2018-02-10T10:43:03.877Z,88.9
2018-02-10T10:44:05.588Z,88.2
2018-02-10T10:45:07.295Z,89.9
2018-02-10T10:46:09.015Z,91.2
2018-02-10T10:47:10.732Z,92.5
2018-02-10T10:48:12.435Z,91.6
2018-02-10T10:49:14.184Z,93.0
2018-02-10T10:50:15.914Z,93.4
2018-02-10T10:51:17.644Z,93.0
2018-02-10T10:52:19.354Z,90.9
2018-02-10T10:53:21.063Z,86.3
2018-02-10T10:54:22.791Z,84.8
2018-02-10T10:55:24.507Z,85.0
2018-02-10T10:56:26.219Z,87.8
2018-02-10T10:57:27.935Z,85.9
2018-02-10T10:58:29.646Z,83.9
2018-02-10T10:59:31.465Z,84.6
2018-02-10T11:00:33.178Z,86.6
2018-02-10T11:01:34.961Z,89.4
2018-02-10T11:02:36.722Z,89.8
2018-02-10T11:03:38.534Z,89.2
2018-02-10T11:04:40.235Z,88.8
2018-02-10T11:05:41.933Z,88.8
2018-02-10T11:06:43.642Z,84.8
2018-02-10T11:07:45.401Z,81.8
2018-02-10T11:08:47.102Z,79.2
2018-02-10T11:09:48.795Z,78.1
2018-02-10T11:10:50.530Z,77.5
2018-02-10T11:11:52.237Z,77.3
2018-02-10T11:12:53.973Z,77.3
2018-02-10T11:13:55.721Z,77.3
2018-02-10T11:14:57.471Z,78.1
2018-02-10T11:15:59.175Z,79.2
2018-02-10T11:17:00.916Z,79.6
2018-02-10T11:18:02.632Z,79.3
2018-02-10T11:19:04.360Z,77.7
2018-02-10T11:20:06.068Z,76.1
2018-02-10T11:21:07.791Z,76.0
2018-02-10T11:22:09.504Z,73.0
2018-02-10T11:23:11.241Z,71.7
2018-02-10T11:24:12.957Z,72.5
2018-02-10T11:25:14.669Z,72.6
2018-02-10T11:26:16.381Z,71.6
2018-02-10T11:27:18.139Z,69.1
2018-02-10T11:28:19.862Z,69.2
2018-02-10T11:29:21.570Z,68.5
2018-02-10T11:30:23.279Z,68.3
2018-02-10T11:31:25.019Z,69.2
2018-02-10T11:32:26.782Z,69.6
2018-02-10T11:33:28.547Z,71.4
2018-02-10T11:34:30.267Z,71.2
2018-02-10T11:35:31.968Z,71.2
2018-02-10T11:36:33.706Z,70.9
2018-02-10T11:37:35.426Z,69.9
2018-02-10T11:38:37.158Z,69.4
2018-02-10T11:39:38.882Z,69.2
2018-02-10T11:40:40.635Z,70.4
2018-02-10T11:41:42.324Z,69.6
2018-02-10T11:42:44.041Z,69.4
2018-02-10T11:43:45.765Z,69.2
2018-02-10T11:44:47.502Z,70.3
2018-02-10T11:45:49.213Z,70.7
2018-02-10T11:46:50.953Z,70.3
2018-02-10T11:47:52.686Z,72.0
2018-02-10T11:48:54.420Z,73.4
2018-02-10T11:49:56.171Z,73.7
2018-02-10T11:50:57.898Z,74.1
2018-02-10T11:51:59.599Z,75.2
2018-02-10T11:53:01.314Z,75.8
2018-02-10T11:54:03.052Z,75.6
2018-02-10T11:55:04.767Z,77.1
2018-02-10T11:56:06.526Z,76.7
2018-02-10T11:57:08.272Z,76.6
2018-02-10T11:58:10.047Z,75.6
2018-02-10T11:59:11.773Z,76.7
2018-02-10T12:00:13.588Z,76.9
2018-02-10T12:01:15.319Z,75.8
2018-02-10T12:02:17.078Z,76.3
2018-02-10T12:03:18.840Z,75.8
2018-02-10T12:04:20.660Z,77.0
2018-02-10T12:05:22.475Z,77.5
2018-02-10T12:06:24.210Z,77.4
2018-02-10T12:07:25.997Z,78.7
2018-02-10T12:08:27.909Z,79.9
2018-02-10T12:09:29.743Z,80.0
2018-02-10T12:10:31.572Z,79.5
2018-02-10T12:11:33.325Z,79.4
2018-02-10T12:12:35.122Z,77.8
2018-02-10T12:13:37.113Z,78.3
2018-02-10T12:14:38.831Z,79.5
2018-02-10T12:15:40.585Z,78.7
2018-02-10T12:16:42.305Z,78.2
2018-02-10T12:17:44.089Z,78.4
2018-02-10T12:18:45.826Z,78.9
2018-02-10T12:19:47.593Z,78.2
2018-02-10T12:20:49.321Z,79.5
2018-02-10T12:21:51.200Z,79.1
2018-02-10T12:22:52.964Z,78.6
2018-02-10T12:23:54.742Z,78.6
2018-02-10T12:24:56.513Z,78.9
2018-02-10T12:25:58.349Z,79.4
2018-02-10T12:27:00.091Z,78.9
2018-02-10T12:28:01.794Z,77.1
2018-02-10T12:29:03.506Z,78.0
2018-02-10T12:30:05.233Z,78.7
2018-02-10T12:31:06.945Z,78.9
2018-02-10T12:32:08.651Z,78.9
2018-02-10T12:33:10.395Z,79.3
2018-02-10T12:34:12.106Z,78.6
2018-02-10T12:35:13.820Z,77.2
2018-02-10T12:36:15.535Z,78.0
2018-02-10T12:37:17.273Z,76.7
2018-02-10T12:38:18.989Z,76.6
2018-02-10T12:39:20.706Z,77.9
2018-02-10T12:40:22.469Z,77.4
2018-02-10T12:41:24.128Z,77.3
2018-02-10T12:42:25.876Z,76.4
2018-02-10T12:43:27.610Z,76.3
2018-02-10T12:44:29.360Z,77.1
2018-02-10T12:45:31.092Z,76.3
2018-02-10T12:49:01.217Z,78.8
2018-02-10T12:50:02.943Z,77.6
2018-02-10T12:51:04.692Z,75.9
2018-02-10T12:52:06.401Z,76.5
2018-02-10T12:53:08.122Z,77.6
2018-02-10T12:54:09.830Z,78.3
2018-02-10T12:55:11.592Z,78.7
2018-02-10T12:56:13.345Z,78.6
2018-02-10T12:57:15.047Z,78.0
2018-02-10T12:58:16.787Z,77.5
2018-02-10T12:59:18.495Z,78.9
2018-02-10T13:00:20.223Z,77.6
2018-02-10T13:01:21.959Z,77.2
2018-02-10T13:02:23.768Z,77.3
2018-02-10T13:03:25.488Z,77.3
2018-02-10T13:04:27.405Z,77.6
2018-02-10T13:05:29.160Z,78.1
2018-02-10T13:06:30.870Z,78.9
2018-02-10T13:07:32.604Z,78.7
2018-02-10T13:08:34.626Z,79.5
2018-02-10T13:09:36.357Z,79.7
2018-02-10T13:10:38.065Z,79.5
2018-02-10T13:11:39.806Z,80.9
2018-02-10T13:12:41.525Z,79.9
2018-02-10T13:13:43.222Z,79.4
2018-02-10T13:14:44.964Z,78.9
2018-02-10T13:15:46.674Z,80.1
2018-02-10T13:16:48.391Z,80.6
2018-02-10T13:17:50.118Z,81.7
2018-02-10T13:18:51.821Z,82.8
2018-02-10T13:19:53.532Z,82.7
2018-02-10T13:20:55.257Z,83.4
2018-02-10T13:21:56.960Z,83.0
2018-02-10T13:22:58.663Z,81.8
2018-02-10T13:24:00.367Z,83.2
2018-02-10T13:25:02.106Z,81.8
2018-02-10T13:26:03.837Z,82.1